Time;durP1;ratioP1;P1;durP2;ratioP2;P2;SDS_P1;SDS_P2;PMS_P1;PMS_P2;Temp;Humidity;BMP_temperature;BMP_pressure;BME280_temperature;BME280_humidity;BME280_pressure;Samples;Min_cycle;Max_cycle;Signal;HPM_P1;HPM_P2
2022/02/19 00:05:16;;;;;;;;;0.00;0.00;;;;;;;;2;261079223;261079223;-79
2022/02/19 00:13:32;;;;;;;;;1.50;1.50;;;;;;;;2;261081888;261081888;-79
2022/02/19 00:22:35;;;;;;;;;0.50;0.50;;;;;;;;2;261079149;261079149;-76
2022/02/19 00:30:51;;;;;;;;;0.00;0.00;;;;;;;;2;261078129;261078129;-76
2022/02/19 00:39:51;;;;;;;;;12.00;0.50;;;;;;;;2;261080768;261080768;-76
2022/02/19 00:48:07;;;;;;;;;0.00;0.00;;;;;;;;2;261076820;261076820;-76
2022/02/19 00:57:07;;;;;;;;;0.50;0.50;;;;;;;;2;261078427;261078427;-76
2022/02/19 01:05:23;;;;;;;;;4.50;0.00;;;;;;;;2;261079577;261079577;-76
2022/02/19 01:14:23;;;;;;;;;0.50;0.50;;;;;;;;2;261077995;261077995;-76
2022/02/19 01:22:39;;;;;;;;;0.00;0.00;;;;;;;;2;261077517;261077517;-76
2022/02/19 01:31:39;;;;;;;;;0.00;0.00;;;;;;;;2;261077671;261077671;-76
2022/02/19 01:39:55;;;;;;;;;0.00;0.00;;;;;;;;2;261077711;261077711;-77
2022/02/19 01:48:55;;;;;;;;;11.00;0.00;;;;;;;;2;261079935;261079935;-77
2022/02/19 01:57:11;;;;;;;;;1.00;1.00;;;;;;;;2;261080169;261080169;-77
2022/02/19 02:06:12;;;;;;;;;5.50;1.50;;;;;;;;2;261078042;261078042;-77
2022/02/19 02:14:27;;;;;;;;;5.00;1.00;;;;;;;;2;261079512;261079512;-78
2022/02/19 02:23:28;;;;;;;;;0.00;0.00;;;;;;;;2;261078172;261078172;-79
2022/02/19 02:31:43;;;;;;;;;0.50;0.50;;;;;;;;2;261079079;261079079;-78
2022/02/19 02:40:44;;;;;;;;;0.00;0.00;;;;;;;;2;261077069;261077069;-78
2022/02/19 02:48:59;;;;;;;;;0.00;0.00;;;;;;;;2;261075741;261075741;-78
2022/02/19 02:57:59;;;;;;;;;5.00;1.00;;;;;;;;2;261079098;261079098;-78
2022/02/19 03:06:15;;;;;;;;;0.00;0.00;;;;;;;;2;261076869;261076869;-78
2022/02/19 03:15:18;;;;;;;;;0.00;0.00;;;;;;;;2;261078519;261078519;-78
2022/02/19 03:23:34;;;;;;;;;0.00;0.00;;;;;;;;2;261076478;261076478;-79
2022/02/19 03:32:34;;;;;;;;;0.00;0.00;;;;;;;;2;261075911;261075911;-79
2022/02/19 03:40:50;;;;;;;;;2.50;0.00;;;;;;;;2;261073601;261073601;-76
2022/02/19 03:49:50;;;;;;;;;0.00;0.00;;;;;;;;2;261078028;261078028;-76
2022/02/19 03:58:06;;;;;;;;;0.50;0.50;;;;;;;;2;261081925;261081925;-77
2022/02/19 04:07:06;;;;;;;;;11.00;0.00;;;;;;;;2;261077281;261077281;-77
2022/02/19 04:15:21;;;;;;;;;0.00;0.00;;;;;;;;2;261077264;261077264;-77
2022/02/19 04:24:22;;;;;;;;;0.00;0.00;;;;;;;;2;261074578;261074578;-77
2022/02/19 04:32:38;;;;;;;;;1.50;1.50;;;;;;;;2;261077371;261077371;-77
2022/02/19 04:41:38;;;;;;;;;1.50;1.50;;;;;;;;2;261073757;261073757;-77
2022/02/19 04:49:54;;;;;;;;;0.00;0.00;;;;;;;;2;261076088;261076088;-77
2022/02/19 04:58:54;;;;;;;;;0.00;0.00;;;;;;;;2;261077122;261077122;-77
2022/02/19 05:07:09;;;;;;;;;0.50;0.50;;;;;;;;2;261077351;261077351;-77
2022/02/19 05:16:10;;;;;;;;;3.00;0.00;;;;;;;;2;261075913;261075913;-76
2022/02/19 05:24:25;;;;;;;;;0.00;0.00;;;;;;;;2;261079613;261079613;-76
2022/02/19 05:33:26;;;;;;;;;0.00;0.00;;;;;;;;2;261077717;261077717;-77
2022/02/19 05:41:41;;;;;;;;;0.00;0.00;;;;;;;;2;261075461;261075461;-77
2022/02/19 05:50:43;;;;;;;;;0.00;0.00;;;;;;;;2;261077038;261077038;-77
2022/02/19 05:58:59;;;;;;;;;3.50;0.50;;;;;;;;2;261077365;261077365;-77
2022/02/19 06:07:59;;;;;;;;;0.00;0.00;;;;;;;;2;261078487;261078487;-77
2022/02/19 06:16:14;;;;;;;;;0.00;0.00;;;;;;;;2;261077683;261077683;-77
2022/02/19 06:25:15;;;;;;;;;11.00;0.00;;;;;;;;2;261074411;261074411;-77
2022/02/19 06:33:30;;;;;;;;;0.00;0.00;;;;;;;;2;261075392;261075392;-78
2022/02/19 06:45:50;;;;;;;;;0.00;0.00;;;;;;;;2;261076702;261076702;-77
2022/02/19 06:54:06;;;;;;;;;0.50;0.50;;;;;;;;2;261079135;261079135;-77
2022/02/19 07:03:06;;;;;;;;;4.50;0.50;;;;;;;;2;261082541;261082541;-77
2022/02/19 07:11:21;;;;;;;;;0.00;0.00;;;;;;;;2;261078911;261078911;-77
2022/02/19 07:20:23;;;;;;;;;1.00;1.00;;;;;;;;2;261084415;261084415;-79
2022/02/19 07:28:38;;;;;;;;;0.00;0.00;;;;;;;;2;261074204;261074204;-79
2022/02/19 07:37:39;;;;;;;;;2.00;2.00;;;;;;;;2;261076479;261076479;-80
2022/02/19 07:45:54;;;;;;;;;0.50;0.50;;;;;;;;2;261074470;261074470;-79
2022/02/19 08:03:29;;;;;;;;;0.50;0.50;;;;;;;;2;261074296;261074296;-78
2022/02/19 08:12:30;;;;;;;;;2.50;2.50;;;;;;;;2;261077743;261077743;-78
2022/02/19 08:20:47;;;;;;;;;0.50;0.50;;;;;;;;2;261077989;261077989;-78
2022/02/19 08:29:47;;;;;;;;;7.00;3.00;;;;;;;;2;261074924;261074924;-79
2022/02/19 08:38:03;;;;;;;;;0.50;0.50;;;;;;;;2;261080620;261080620;-78
2022/02/19 08:47:04;;;;;;;;;2.50;2.50;;;;;;;;2;261082553;261082553;-77
2022/02/19 08:55:19;;;;;;;;;3.50;0.50;;;;;;;;2;261076351;261076351;-78
2022/02/19 09:04:20;;;;;;;;;1.50;1.50;;;;;;;;2;261079468;261079468;-79
2022/02/19 09:12:36;;;;;;;;;0.00;0.00;;;;;;;;2;261077386;261077386;-77
2022/02/19 09:21:38;;;;;;;;;0.00;0.00;;;;;;;;2;261080083;261080083;-77
2022/02/19 09:29:56;;;;;;;;;1.00;1.00;;;;;;;;2;261077178;261077178;-79
2022/02/19 09:38:56;;;;;;;;;12.50;1.50;;;;;;;;2;261085656;261085656;-78
2022/02/19 09:47:12;;;;;;;;;7.00;0.00;;;;;;;;2;261077675;261077675;-78
2022/02/19 09:56:13;;;;;;;;;0.00;0.00;;;;;;;;2;261073724;261073724;-78
2022/02/19 10:04:28;;;;;;;;;0.00;0.00;;;;;;;;2;261075839;261075839;-78
2022/02/19 10:13:36;;;;;;;;;0.00;0.00;;;;;;;;2;261075257;261075257;-78
2022/02/19 10:22:07;;;;;;;;;1.50;0.00;;;;;;;;2;261076634;261076634;-78
2022/02/19 10:31:15;;;;;;;;;1.00;1.00;;;;;;;;2;261080737;261080737;-78
2022/02/19 10:39:31;;;;;;;;;3.50;3.50;;;;;;;;2;261077525;261077525;-78
2022/02/19 10:48:33;;;;;;;;;4.00;0.00;;;;;;;;2;261076161;261076161;-79
2022/02/19 10:56:49;;;;;;;;;0.00;0.00;;;;;;;;2;261076767;261076767;-78
2022/02/19 11:05:49;;;;;;;;;1.00;1.00;;;;;;;;2;261071924;261071924;-78
2022/02/19 11:14:05;;;;;;;;;1.50;1.50;;;;;;;;2;261078905;261078905;-78
2022/02/19 11:23:06;;;;;;;;;3.00;0.00;;;;;;;;2;261073795;261073795;-80
2022/02/19 11:31:25;;;;;;;;;1.00;1.00;;;;;;;;2;261076498;261076498;-78
2022/02/19 11:40:26;;;;;;;;;0.00;0.00;;;;;;;;2;261080405;261080405;-79
2022/02/19 11:48:42;;;;;;;;;0.50;0.50;;;;;;;;2;261078603;261078603;-82
2022/02/19 11:57:43;;;;;;;;;2.00;2.00;;;;;;;;2;261075001;261075001;-79
2022/02/19 12:06:08;;;;;;;;;0.00;0.00;;;;;;;;2;261075847;261075847;-78
2022/02/19 12:15:26;;;;;;;;;0.50;0.50;;;;;;;;2;261077707;261077707;-79
2022/02/19 12:23:45;;;;;;;;;2.50;2.50;;;;;;;;2;261075388;261075388;-78
2022/02/19 12:32:47;;;;;;;;;1.50;1.50;;;;;;;;2;261076720;261076720;-78
2022/02/19 12:41:03;;;;;;;;;0.00;0.00;;;;;;;;2;261077859;261077859;-79
2022/02/19 12:50:05;;;;;;;;;0.50;0.50;;;;;;;;2;261078056;261078056;-79
2022/02/19 12:58:20;;;;;;;;;0.00;0.00;;;;;;;;2;261075060;261075060;-78
2022/02/19 13:07:22;;;;;;;;;0.00;0.00;;;;;;;;2;261072484;261072484;-79
2022/02/19 13:15:37;;;;;;;;;0.00;0.00;;;;;;;;2;261080026;261080026;-79
2022/02/19 13:24:39;;;;;;;;;1.00;1.00;;;;;;;;2;261077042;261077042;-79
2022/02/19 13:32:55;;;;;;;;;2.50;2.50;;;;;;;;2;261076594;261076594;-78
2022/02/19 13:41:56;;;;;;;;;14.00;2.50;;;;;;;;2;261071597;261071597;-78
2022/02/19 13:50:11;;;;;;;;;1.50;1.50;;;;;;;;2;261075461;261075461;-78
2022/02/19 13:59:19;;;;;;;;;12.00;0.50;;;;;;;;2;261077579;261077579;-79
2022/02/19 14:07:53;;;;;;;;;0.00;0.00;;;;;;;;2;261080366;261080366;-80
2022/02/19 14:17:00;;;;;;;;;0.00;0.00;;;;;;;;2;261075367;261075367;-82
2022/02/19 14:25:19;;;;;;;;;1.50;1.50;;;;;;;;2;261077773;261077773;-80
2022/02/19 14:34:19;;;;;;;;;0.50;0.50;;;;;;;;2;261076170;261076170;-79
2022/02/19 14:42:35;;;;;;;;;0.50;0.50;;;;;;;;2;261075505;261075505;-79
2022/02/19 14:51:35;;;;;;;;;3.00;0.50;;;;;;;;2;261077068;261077068;-79
2022/02/19 14:59:51;;;;;;;;;5.00;1.00;;;;;;;;2;261078473;261078473;-80
2022/02/19 15:08:52;;;;;;;;;1.50;0.00;;;;;;;;2;261074991;261074991;-80
2022/02/19 15:17:07;;;;;;;;;0.50;0.50;;;;;;;;2;261077422;261077422;-80
2022/02/19 15:26:08;;;;;;;;;0.00;0.00;;;;;;;;2;261075256;261075256;-79
2022/02/19 15:34:24;;;;;;;;;2.00;0.50;;;;;;;;2;261075966;261075966;-78
2022/02/19 15:43:24;;;;;;;;;3.00;1.00;;;;;;;;2;261075270;261075270;-79
2022/02/19 15:51:39;;;;;;;;;1.00;1.00;;;;;;;;2;261075820;261075820;-78
2022/02/19 16:00:40;;;;;;;;;2.00;2.00;;;;;;;;2;261079063;261079063;-78
2022/02/19 16:08:57;;;;;;;;;12.50;1.50;;;;;;;;2;261084231;261084231;-77
2022/02/19 16:17:57;;;;;;;;;0.00;0.00;;;;;;;;2;261076788;261076788;-77
2022/02/19 16:26:14;;;;;;;;;0.00;0.00;;;;;;;;2;261078990;261078990;-85
2022/02/19 16:35:14;;;;;;;;;1.50;1.50;;;;;;;;2;261077143;261077143;-77
2022/02/19 16:43:30;;;;;;;;;1.00;1.00;;;;;;;;2;261077798;261077798;-77
2022/02/19 16:52:33;;;;;;;;;0.50;0.50;;;;;;;;2;261080755;261080755;-77
2022/02/19 17:00:48;;;;;;;;;1.00;1.00;;;;;;;;2;261078705;261078705;-78
2022/02/19 17:09:48;;;;;;;;;5.00;0.50;;;;;;;;2;261079998;261079998;-79
2022/02/19 17:18:04;;;;;;;;;1.00;1.00;;;;;;;;2;261072289;261072289;-78
2022/02/19 17:27:04;;;;;;;;;0.50;0.50;;;;;;;;2;261081620;261081620;-81
2022/02/19 17:35:20;;;;;;;;;1.00;1.00;;;;;;;;2;261080740;261080740;-81
2022/02/19 17:44:20;;;;;;;;;1.50;1.50;;;;;;;;2;261078973;261078973;-81
2022/02/19 17:52:42;;;;;;;;;1.50;1.50;;;;;;;;2;261081767;261081767;-82
2022/02/19 18:01:42;;;;;;;;;1.50;1.50;;;;;;;;2;261017718;261017718;-80
2022/02/19 18:09:59;;;;;;;;;12.50;1.00;;;;;;;;2;261085977;261085977;-81
2022/02/19 18:19:02;;;;;;;;;2.50;2.50;;;;;;;;2;261078879;261078879;-80
2022/02/19 18:27:17;;;;;;;;;3.00;3.00;;;;;;;;2;261077945;261077945;-80
2022/02/19 18:36:18;;;;;;;;;2.00;2.00;;;;;;;;2;261080531;261080531;-80
2022/02/19 18:44:33;;;;;;;;;1.00;1.00;;;;;;;;2;261080661;261080661;-80
2022/02/19 18:53:34;;;;;;;;;0.50;0.50;;;;;;;;2;261082035;261082035;-81
2022/02/19 19:01:49;;;;;;;;;0.50;0.50;;;;;;;;2;261078222;261078222;-81
2022/02/19 19:10:49;;;;;;;;;13.50;2.50;;;;;;;;2;261080661;261080661;-81
2022/02/19 19:19:05;;;;;;;;;0.00;0.00;;;;;;;;2;261076845;261076845;-81
2022/02/19 19:36:51;;;;;;;;;0.00;0.00;;;;;;;;2;261076218;261076218;-83
2022/02/19 19:45:52;;;;;;;;;13.00;1.50;;;;;;;;2;261081505;261081505;-82
2022/02/19 19:54:07;;;;;;;;;0.50;0.50;;;;;;;;2;261079449;261079449;-82
2022/02/19 20:03:10;;;;;;;;;2.50;1.00;;;;;;;;2;261077669;261077669;-82
2022/02/19 20:11:25;;;;;;;;;13.50;2.50;;;;;;;;2;261080812;261080812;-84
2022/02/19 20:20:26;;;;;;;;;1.50;1.50;;;;;;;;2;260871256;260871256;-83
2022/02/19 20:28:41;;;;;;;;;1.00;1.00;;;;;;;;2;261081286;261081286;-83
2022/02/19 20:37:42;;;;;;;;;0.50;0.50;;;;;;;;2;261076041;261076041;-82
2022/02/19 20:45:57;;;;;;;;;1.50;1.50;;;;;;;;2;261072898;261072898;-83
2022/02/19 20:54:58;;;;;;;;;1.50;1.50;;;;;;;;2;261076682;261076682;-83
2022/02/19 21:03:13;;;;;;;;;0.50;0.50;;;;;;;;2;261079774;261079774;-83
2022/02/19 21:12:15;;;;;;;;;11.50;0.50;;;;;;;;2;261076699;261076699;-83
2022/02/19 21:20:34;;;;;;;;;0.50;0.50;;;;;;;;2;261077325;261077325;-82
2022/02/19 21:29:35;;;;;;;;;1.00;1.00;;;;;;;;2;261080252;261080252;-84
2022/02/19 21:37:51;;;;;;;;;1.50;1.50;;;;;;;;2;260894927;260894927;-83
2022/02/19 21:46:51;;;;;;;;;1.50;1.50;;;;;;;;2;261080251;261080251;-83
2022/02/19 21:55:07;;;;;;;;;1.00;1.00;;;;;;;;2;260705125;260705125;-83
2022/02/19 22:04:08;;;;;;;;;1.00;1.00;;;;;;;;2;261078601;261078601;-83
2022/02/19 22:12:24;;;;;;;;;2.00;2.00;;;;;;;;2;261081181;261081181;-84
2022/02/19 22:21:24;;;;;;;;;0.00;0.00;;;;;;;;2;261077873;261077873;-83
2022/02/19 22:45:54;;;;;;;;;3.00;2.00;;;;;;;;178442;27;261077554;-82
2022/02/19 22:54:54;;;;;;;;;0.50;0.50;;;;;;;;2;261078992;261078992;-83
2022/02/19 23:05:34;;;;;;;;;8.00;0.50;;;;;;;;2;261076549;261076549;-81
2022/02/19 23:12:30;;;;;;;;;3.00;1.00;;;;;;;;2;260716041;260716041;-81
2022/02/19 23:20:46;;;;;;;;;0.50;0.50;;;;;;;;2;261073733;261073733;-81
2022/02/19 23:29:46;;;;;;;;;0.50;0.50;;;;;;;;2;261076493;261076493;-83
2022/02/19 23:38:02;;;;;;;;;7.00;0.50;;;;;;;;2;261082005;261082005;-83
2022/02/19 23:47:02;;;;;;;;;1.00;1.00;;;;;;;;2;261080417;261080417;-84
2022/02/19 23:55:17;;;;;;;;;0.00;0.00;;;;;;;;2;260966061;260966061;-84
